sensor_id;sensor_type;location;lat;lon;timestamp;P1;durP1;ratioP1;P2;durP2;ratioP2
14778;SDS011;7481;53.750;10.570;2022-10-28T00:03:57;6.87;;;4.27;;
14778;SDS011;7481;53.750;10.570;2022-10-28T00:06:46;5.63;;;4.03;;
14778;SDS011;7481;53.750;10.570;2022-10-28T00:09:33;8.13;;;5.00;;
14778;SDS011;7481;53.750;10.570;2022-10-28T00:12:20;10.03;;;4.53;;
14778;SDS011;7481;53.750;10.570;2022-10-28T00:15:07;7.40;;;4.50;;
14778;SDS011;7481;53.750;10.570;2022-10-28T00:17:54;6.63;;;4.53;;
14778;SDS011;7481;53.750;10.570;2022-10-28T00:20:41;10.97;;;5.37;;
14778;SDS011;7481;53.750;10.570;2022-10-28T00:23:28;6.93;;;4.47;;
14778;SDS011;7481;53.750;10.570;2022-10-28T00:26:17;8.07;;;4.53;;
14778;SDS011;7481;53.750;10.570;2022-10-28T00:29:06;7.50;;;4.87;;
14778;SDS011;7481;53.750;10.570;2022-10-28T00:31:55;9.47;;;5.23;;
14778;SDS011;7481;53.750;10.570;2022-10-28T00:34:42;8.57;;;5.37;;
14778;SDS011;7481;53.750;10.570;2022-10-28T00:37:29;8.30;;;5.47;;
14778;SDS011;7481;53.750;10.570;2022-10-28T00:40:16;8.40;;;4.80;;
14778;SDS011;7481;53.750;10.570;2022-10-28T00:43:03;12.13;;;4.50;;
14778;SDS011;7481;53.750;10.570;2022-10-28T00:45:50;5.93;;;4.27;;
14778;SDS011;7481;53.750;10.570;2022-10-28T00:48:37;10.77;;;4.77;;
14778;SDS011;7481;53.750;10.570;2022-10-28T00:51:26;6.10;;;4.33;;
14778;SDS011;7481;53.750;10.570;2022-10-28T00:54:15;5.80;;;4.20;;
14778;SDS011;7481;53.750;10.570;2022-10-28T00:57:03;6.93;;;4.83;;
14778;SDS011;7481;53.750;10.570;2022-10-28T00:59:56;7.20;;;4.53;;
14778;SDS011;7481;53.750;10.570;2022-10-28T01:02:45;8.87;;;4.80;;
14778;SDS011;7481;53.750;10.570;2022-10-28T01:05:35;5.43;;;4.53;;
14778;SDS011;7481;53.750;10.570;2022-10-28T01:08:24;9.17;;;4.80;;
14778;SDS011;7481;53.750;10.570;2022-10-28T01:14:15;8.63;;;4.30;;
14778;SDS011;7481;53.750;10.570;2022-10-28T01:20:20;8.03;;;4.93;;
14778;SDS011;7481;53.750;10.570;2022-10-28T01:23:46;9.43;;;4.47;;
14778;SDS011;7481;53.750;10.570;2022-10-28T01:26:41;7.40;;;3.90;;
14778;SDS011;7481;53.750;10.570;2022-10-28T01:35:51;8.00;;;4.60;;
14778;SDS011;7481;53.750;10.570;2022-10-28T01:39:04;9.43;;;4.80;;
14778;SDS011;7481;53.750;10.570;2022-10-28T01:45:16;6.80;;;4.93;;
14778;SDS011;7481;53.750;10.570;2022-10-28T01:48:09;6.27;;;4.17;;
14778;SDS011;7481;53.750;10.570;2022-10-28T01:51:08;6.77;;;5.00;;
14778;SDS011;7481;53.750;10.570;2022-10-28T01:54:02;7.07;;;4.57;;
14778;SDS011;7481;53.750;10.570;2022-10-28T01:56:52;8.03;;;4.80;;
14778;SDS011;7481;53.750;10.570;2022-10-28T01:59:41;12.13;;;4.80;;
14778;SDS011;7481;53.750;10.570;2022-10-28T02:02:31;7.43;;;5.00;;
14778;SDS011;7481;53.750;10.570;2022-10-28T02:05:37;6.30;;;4.33;;
14778;SDS011;7481;53.750;10.570;2022-10-28T02:08:30;7.60;;;4.27;;
14778;SDS011;7481;53.750;10.570;2022-10-28T02:11:32;9.43;;;5.13;;
14778;SDS011;7481;53.750;10.570;2022-10-28T02:14:56;5.57;;;4.77;;
14778;SDS011;7481;53.750;10.570;2022-10-28T02:17:51;6.47;;;4.73;;
14778;SDS011;7481;53.750;10.570;2022-10-28T02:20:59;10.07;;;4.67;;
14778;SDS011;7481;53.750;10.570;2022-10-28T02:23:52;7.63;;;4.83;;
14778;SDS011;7481;53.750;10.570;2022-10-28T02:27:04;4.73;;;4.03;;
14778;SDS011;7481;53.750;10.570;2022-10-28T02:30:04;6.43;;;4.77;;
14778;SDS011;7481;53.750;10.570;2022-10-28T02:32:55;7.53;;;4.87;;
14778;SDS011;7481;53.750;10.570;2022-10-28T02:35:49;6.97;;;5.03;;
14778;SDS011;7481;53.750;10.570;2022-10-28T02:38:42;6.40;;;4.63;;
14778;SDS011;7481;53.750;10.570;2022-10-28T02:44:44;9.53;;;4.87;;
14778;SDS011;7481;53.750;10.570;2022-10-28T02:47:36;11.87;;;5.13;;
14778;SDS011;7481;53.750;10.570;2022-10-28T02:50:30;6.80;;;4.90;;
14778;SDS011;7481;53.750;10.570;2022-10-28T02:53:25;8.10;;;4.50;;
14778;SDS011;7481;53.750;10.570;2022-10-28T02:56:17;9.70;;;5.00;;
14778;SDS011;7481;53.750;10.570;2022-10-28T02:59:09;7.57;;;4.97;;
14778;SDS011;7481;53.750;10.570;2022-10-28T03:01:57;9.63;;;5.30;;
14778;SDS011;7481;53.750;10.570;2022-10-28T03:04:44;7.53;;;4.97;;
14778;SDS011;7481;53.750;10.570;2022-10-28T03:07:31;9.77;;;5.00;;
14778;SDS011;7481;53.750;10.570;2022-10-28T03:10:18;7.47;;;4.70;;
14778;SDS011;7481;53.750;10.570;2022-10-28T03:13:05;10.30;;;4.93;;
14778;SDS011;7481;53.750;10.570;2022-10-28T03:15:52;7.50;;;4.80;;
14778;SDS011;7481;53.750;10.570;2022-10-28T03:18:39;8.80;;;4.80;;
14778;SDS011;7481;53.750;10.570;2022-10-28T03:21:26;7.17;;;4.70;;
14778;SDS011;7481;53.750;10.570;2022-10-28T03:24:13;9.83;;;5.87;;
14778;SDS011;7481;53.750;10.570;2022-10-28T03:27:00;7.30;;;4.57;;
14778;SDS011;7481;53.750;10.570;2022-10-28T03:29:47;7.83;;;4.70;;
14778;SDS011;7481;53.750;10.570;2022-10-28T03:32:34;10.00;;;4.87;;
14778;SDS011;7481;53.750;10.570;2022-10-28T03:35:21;8.07;;;4.80;;
14778;SDS011;7481;53.750;10.570;2022-10-28T03:38:08;8.27;;;5.20;;
14778;SDS011;7481;53.750;10.570;2022-10-28T03:40:55;9.10;;;5.57;;
14778;SDS011;7481;53.750;10.570;2022-10-28T03:43:42;6.43;;;4.80;;
14778;SDS011;7481;53.750;10.570;2022-10-28T03:46:29;5.97;;;4.77;;
14778;SDS011;7481;53.750;10.570;2022-10-28T03:49:21;7.97;;;5.57;;
14778;SDS011;7481;53.750;10.570;2022-10-28T03:52:08;7.37;;;5.37;;
14778;SDS011;7481;53.750;10.570;2022-10-28T03:54:55;8.13;;;5.37;;
14778;SDS011;7481;53.750;10.570;2022-10-28T03:57:42;9.37;;;4.80;;
14778;SDS011;7481;53.750;10.570;2022-10-28T04:00:29;9.00;;;4.50;;
14778;SDS011;7481;53.750;10.570;2022-10-28T04:03:16;7.10;;;4.93;;
14778;SDS011;7481;53.750;10.570;2022-10-28T04:06:04;9.37;;;4.57;;
14778;SDS011;7481;53.750;10.570;2022-10-28T04:08:51;8.30;;;4.13;;
14778;SDS011;7481;53.750;10.570;2022-10-28T04:11:38;7.17;;;4.27;;
14778;SDS011;7481;53.750;10.570;2022-10-28T04:14:25;14.70;;;4.63;;
14778;SDS011;7481;53.750;10.570;2022-10-28T04:17:12;8.23;;;5.13;;
14778;SDS011;7481;53.750;10.570;2022-10-28T04:19:59;6.73;;;4.60;;
14778;SDS011;7481;53.750;10.570;2022-10-28T04:22:46;8.00;;;5.10;;
14778;SDS011;7481;53.750;10.570;2022-10-28T04:25:33;7.87;;;4.93;;
14778;SDS011;7481;53.750;10.570;2022-10-28T04:28:20;5.77;;;4.43;;
14778;SDS011;7481;53.750;10.570;2022-10-28T04:31:09;10.20;;;5.10;;
14778;SDS011;7481;53.750;10.570;2022-10-28T04:33:57;10.40;;;6.13;;
14778;SDS011;7481;53.750;10.570;2022-10-28T04:36:44;9.87;;;4.87;;
14778;SDS011;7481;53.750;10.570;2022-10-28T04:39:31;12.90;;;5.27;;
14778;SDS011;7481;53.750;10.570;2022-10-28T04:42:18;7.03;;;4.97;;
14778;SDS011;7481;53.750;10.570;2022-10-28T04:45:06;6.00;;;4.43;;
14778;SDS011;7481;53.750;10.570;2022-10-28T04:47:59;9.60;;;5.10;;
14778;SDS011;7481;53.750;10.570;2022-10-28T04:50:47;6.30;;;4.00;;
14778;SDS011;7481;53.750;10.570;2022-10-28T04:53:34;7.37;;;4.47;;
14778;SDS011;7481;53.750;10.570;2022-10-28T04:56:21;8.40;;;4.80;;
14778;SDS011;7481;53.750;10.570;2022-10-28T04:59:08;9.10;;;5.00;;
14778;SDS011;7481;53.750;10.570;2022-10-28T05:01:55;9.17;;;5.27;;
14778;SDS011;7481;53.750;10.570;2022-10-28T05:04:42;7.57;;;5.00;;
14778;SDS011;7481;53.750;10.570;2022-10-28T05:07:29;8.13;;;4.50;;
14778;SDS011;7481;53.750;10.570;2022-10-28T05:10:16;7.30;;;4.80;;
14778;SDS011;7481;53.750;10.570;2022-10-28T05:13:03;9.23;;;5.13;;
14778;SDS011;7481;53.750;10.570;2022-10-28T05:15:50;10.17;;;5.70;;
14778;SDS011;7481;53.750;10.570;2022-10-28T05:18:37;8.73;;;4.37;;
14778;SDS011;7481;53.750;10.570;2022-10-28T05:21:24;9.50;;;5.07;;
14778;SDS011;7481;53.750;10.570;2022-10-28T05:24:11;9.30;;;4.60;;
14778;SDS011;7481;53.750;10.570;2022-10-28T05:26:58;10.60;;;5.30;;
14778;SDS011;7481;53.750;10.570;2022-10-28T05:29:46;8.67;;;5.50;;
14778;SDS011;7481;53.750;10.570;2022-10-28T05:32:33;8.83;;;5.43;;
14778;SDS011;7481;53.750;10.570;2022-10-28T05:35:20;7.10;;;5.43;;
14778;SDS011;7481;53.750;10.570;2022-10-28T05:38:07;7.77;;;6.20;;
14778;SDS011;7481;53.750;10.570;2022-10-28T05:40:54;9.30;;;6.23;;
14778;SDS011;7481;53.750;10.570;2022-10-28T05:43:41;10.40;;;5.23;;
14778;SDS011;7481;53.750;10.570;2022-10-28T05:46:28;8.97;;;5.57;;
14778;SDS011;7481;53.750;10.570;2022-10-28T05:49:15;7.43;;;5.57;;
14778;SDS011;7481;53.750;10.570;2022-10-28T05:52:05;9.13;;;5.87;;
14778;SDS011;7481;53.750;10.570;2022-10-28T05:54:52;10.70;;;5.23;;
14778;SDS011;7481;53.750;10.570;2022-10-28T05:57:39;11.50;;;5.47;;
14778;SDS011;7481;53.750;10.570;2022-10-28T06:00:26;10.67;;;5.20;;
14778;SDS011;7481;53.750;10.570;2022-10-28T06:03:13;7.20;;;4.87;;
14778;SDS011;7481;53.750;10.570;2022-10-28T06:06:00;12.50;;;5.60;;
14778;SDS011;7481;53.750;10.570;2022-10-28T06:08:47;11.57;;;5.97;;
14778;SDS011;7481;53.750;10.570;2022-10-28T06:11:34;9.30;;;5.07;;
14778;SDS011;7481;53.750;10.570;2022-10-28T06:14:21;12.13;;;5.57;;
14778;SDS011;7481;53.750;10.570;2022-10-28T06:17:08;10.87;;;5.13;;
14778;SDS011;7481;53.750;10.570;2022-10-28T06:19:55;7.73;;;5.33;;
14778;SDS011;7481;53.750;10.570;2022-10-28T06:25:35;7.77;;;5.27;;
14778;SDS011;7481;53.750;10.570;2022-10-28T06:28:22;11.30;;;5.87;;
14778;SDS011;7481;53.750;10.570;2022-10-28T06:31:09;6.93;;;5.47;;
14778;SDS011;7481;53.750;10.570;2022-10-28T06:33:56;12.30;;;6.77;;
14778;SDS011;7481;53.750;10.570;2022-10-28T06:36:43;8.97;;;6.00;;
14778;SDS011;7481;53.750;10.570;2022-10-28T06:39:30;10.07;;;7.47;;
14778;SDS011;7481;53.750;10.570;2022-10-28T06:42:17;12.37;;;7.33;;
14778;SDS011;7481;53.750;10.570;2022-10-28T06:45:05;8.27;;;6.40;;
14778;SDS011;7481;53.750;10.570;2022-10-28T06:47:56;10.20;;;6.40;;
14778;SDS011;7481;53.750;10.570;2022-10-28T06:50:44;8.90;;;5.93;;
14778;SDS011;7481;53.750;10.570;2022-10-28T06:53:31;8.67;;;6.00;;
14778;SDS011;7481;53.750;10.570;2022-10-28T06:56:18;10.50;;;6.40;;
14778;SDS011;7481;53.750;10.570;2022-10-28T06:59:05;11.17;;;6.17;;
14778;SDS011;7481;53.750;10.570;2022-10-28T07:01:53;11.93;;;6.93;;
14778;SDS011;7481;53.750;10.570;2022-10-28T07:04:40;13.90;;;7.10;;
14778;SDS011;7481;53.750;10.570;2022-10-28T07:07:27;11.37;;;6.77;;
14778;SDS011;7481;53.750;10.570;2022-10-28T07:10:14;10.60;;;6.87;;
14778;SDS011;7481;53.750;10.570;2022-10-28T07:13:01;10.40;;;7.17;;
14778;SDS011;7481;53.750;10.570;2022-10-28T07:15:52;11.87;;;6.57;;
14778;SDS011;7481;53.750;10.570;2022-10-28T07:18:39;10.03;;;6.20;;
14778;SDS011;7481;53.750;10.570;2022-10-28T07:21:26;11.43;;;6.13;;
14778;SDS011;7481;53.750;10.570;2022-10-28T07:24:15;7.97;;;5.53;;
14778;SDS011;7481;53.750;10.570;2022-10-28T07:27:02;9.70;;;5.70;;
14778;SDS011;7481;53.750;10.570;2022-10-28T07:29:49;9.40;;;6.00;;
14778;SDS011;7481;53.750;10.570;2022-10-28T07:32:36;12.70;;;5.83;;
14778;SDS011;7481;53.750;10.570;2022-10-28T07:35:23;11.23;;;6.63;;
14778;SDS011;7481;53.750;10.570;2022-10-28T07:38:10;11.47;;;6.50;;
14778;SDS011;7481;53.750;10.570;2022-10-28T07:40:57;8.37;;;6.50;;
14778;SDS011;7481;53.750;10.570;2022-10-28T07:43:44;19.03;;;9.30;;
14778;SDS011;7481;53.750;10.570;2022-10-28T07:46:31;19.07;;;11.03;;
14778;SDS011;7481;53.750;10.570;2022-10-28T07:49:18;22.17;;;11.17;;
14778;SDS011;7481;53.750;10.570;2022-10-28T07:52:05;15.33;;;9.97;;
14778;SDS011;7481;53.750;10.570;2022-10-28T07:54:51;14.37;;;9.43;;
14778;SDS011;7481;53.750;10.570;2022-10-28T07:57:38;14.07;;;9.20;;
14778;SDS011;7481;53.750;10.570;2022-10-28T08:00:25;11.30;;;8.37;;
14778;SDS011;7481;53.750;10.570;2022-10-28T08:03:12;12.30;;;7.10;;
14778;SDS011;7481;53.750;10.570;2022-10-28T08:06:00;11.40;;;6.67;;
14778;SDS011;7481;53.750;10.570;2022-10-28T08:08:51;12.40;;;5.67;;
14778;SDS011;7481;53.750;10.570;2022-10-28T08:11:40;9.67;;;6.37;;
14778;SDS011;7481;53.750;10.570;2022-10-28T08:14:27;11.57;;;5.20;;
14778;SDS011;7481;53.750;10.570;2022-10-28T08:17:14;8.20;;;5.17;;
14778;SDS011;7481;53.750;10.570;2022-10-28T08:20:01;6.57;;;5.20;;
14778;SDS011;7481;53.750;10.570;2022-10-28T08:22:48;12.37;;;5.30;;
14778;SDS011;7481;53.750;10.570;2022-10-28T08:25:35;6.73;;;4.43;;
14778;SDS011;7481;53.750;10.570;2022-10-28T08:28:22;7.03;;;4.90;;
14778;SDS011;7481;53.750;10.570;2022-10-28T08:31:09;8.77;;;5.23;;
14778;SDS011;7481;53.750;10.570;2022-10-28T08:33:58;10.63;;;4.97;;
14778;SDS011;7481;53.750;10.570;2022-10-28T08:36:45;7.97;;;5.00;;
14778;SDS011;7481;53.750;10.570;2022-10-28T08:39:32;8.27;;;4.90;;
14778;SDS011;7481;53.750;10.570;2022-10-28T08:42:27;5.80;;;4.90;;
14778;SDS011;7481;53.750;10.570;2022-10-28T08:48:41;7.68;;;4.65;;
14778;SDS011;7481;53.750;10.570;2022-10-28T08:51:33;7.93;;;4.68;;
14778;SDS011;7481;53.750;10.570;2022-10-28T08:54:44;10.27;;;4.10;;
14778;SDS011;7481;53.750;10.570;2022-10-28T08:57:54;6.90;;;4.05;;
14778;SDS011;7481;53.750;10.570;2022-10-28T09:00:55;10.55;;;4.25;;
14778;SDS011;7481;53.750;10.570;2022-10-28T09:03:45;7.43;;;4.53;;
14778;SDS011;7481;53.750;10.570;2022-10-28T09:06:36;6.80;;;3.22;;
14778;SDS011;7481;53.750;10.570;2022-10-28T09:09:23;9.63;;;3.92;;
14778;SDS011;7481;53.750;10.570;2022-10-28T09:15:39;9.85;;;3.42;;
14778;SDS011;7481;53.750;10.570;2022-10-28T09:18:53;12.40;;;4.00;;
14778;SDS011;7481;53.750;10.570;2022-10-28T09:21:46;6.85;;;3.47;;
14778;SDS011;7481;53.750;10.570;2022-10-28T09:30:53;5.55;;;3.83;;
14778;SDS011;7481;53.750;10.570;2022-10-28T09:37:03;8.10;;;3.88;;
14778;SDS011;7481;53.750;10.570;2022-10-28T09:40:20;6.22;;;3.45;;
14778;SDS011;7481;53.750;10.570;2022-10-28T09:46:12;6.95;;;3.60;;
14778;SDS011;7481;53.750;10.570;2022-10-28T09:49:02;8.20;;;3.60;;
14778;SDS011;7481;53.750;10.570;2022-10-28T09:55:06;9.77;;;3.67;;
14778;SDS011;7481;53.750;10.570;2022-10-28T09:58:02;6.97;;;3.80;;
14778;SDS011;7481;53.750;10.570;2022-10-28T10:01:07;7.55;;;3.55;;
14778;SDS011;7481;53.750;10.570;2022-10-28T10:03:54;7.00;;;3.63;;
14778;SDS011;7481;53.750;10.570;2022-10-28T10:06:41;7.10;;;3.55;;
14778;SDS011;7481;53.750;10.570;2022-10-28T10:09:30;6.25;;;3.28;;
14778;SDS011;7481;53.750;10.570;2022-10-28T10:12:18;6.13;;;3.40;;
14778;SDS011;7481;53.750;10.570;2022-10-28T10:15:05;5.35;;;3.42;;
14778;SDS011;7481;53.750;10.570;2022-10-28T10:18:00;7.70;;;3.33;;
14778;SDS011;7481;53.750;10.570;2022-10-28T10:20:53;7.45;;;3.67;;
14778;SDS011;7481;53.750;10.570;2022-10-28T10:23:42;9.95;;;4.00;;
14778;SDS011;7481;53.750;10.570;2022-10-28T10:26:47;8.90;;;3.45;;
14778;SDS011;7481;53.750;10.570;2022-10-28T10:29:34;10.88;;;3.35;;
14778;SDS011;7481;53.750;10.570;2022-10-28T10:32:31;7.82;;;3.03;;
14778;SDS011;7481;53.750;10.570;2022-10-28T10:35:37;9.27;;;3.40;;
14778;SDS011;7481;53.750;10.570;2022-10-28T10:41:59;6.63;;;3.40;;
14778;SDS011;7481;53.750;10.570;2022-10-28T10:44:46;6.95;;;3.67;;
14778;SDS011;7481;53.750;10.570;2022-10-28T10:48:18;8.35;;;3.80;;
14778;SDS011;7481;53.750;10.570;2022-10-28T10:51:16;8.93;;;3.72;;
14778;SDS011;7481;53.750;10.570;2022-10-28T10:54:12;8.25;;;3.75;;
14778;SDS011;7481;53.750;10.570;2022-10-28T10:57:07;11.63;;;4.00;;
14778;SDS011;7481;53.750;10.570;2022-10-28T11:00:19;6.85;;;3.97;;
14778;SDS011;7481;53.750;10.570;2022-10-28T11:03:11;9.30;;;3.88;;
14778;SDS011;7481;53.750;10.570;2022-10-28T11:06:20;7.97;;;3.42;;
14778;SDS011;7481;53.750;10.570;2022-10-28T11:18:16;8.48;;;3.50;;
14778;SDS011;7481;53.750;10.570;2022-10-28T11:34:16;13.07;;;4.38;;
14778;SDS011;7481;53.750;10.570;2022-10-28T11:37:19;7.40;;;3.50;;
14778;SDS011;7481;53.750;10.570;2022-10-28T11:53:19;9.60;;;3.72;;
14778;SDS011;7481;53.750;10.570;2022-10-28T11:56:41;11.88;;;3.85;;
14778;SDS011;7481;53.750;10.570;2022-10-28T12:09:08;13.40;;;3.60;;
14778;SDS011;7481;53.750;10.570;2022-10-28T12:18:51;8.82;;;4.07;;
14778;SDS011;7481;53.750;10.570;2022-10-28T12:22:18;8.15;;;4.03;;
14778;SDS011;7481;53.750;10.570;2022-10-28T12:25:16;10.95;;;3.85;;
14778;SDS011;7481;53.750;10.570;2022-10-28T12:28:22;9.27;;;3.60;;
14778;SDS011;7481;53.750;10.570;2022-10-28T12:31:18;8.50;;;3.60;;
14778;SDS011;7481;53.750;10.570;2022-10-28T12:34:15;10.15;;;3.75;;
14778;SDS011;7481;53.750;10.570;2022-10-28T12:41:12;8.70;;;3.40;;
14778;SDS011;7481;53.750;10.570;2022-10-28T12:44:08;11.35;;;4.38;;
14778;SDS011;7481;53.750;10.570;2022-10-28T12:53:33;10.60;;;3.95;;
14778;SDS011;7481;53.750;10.570;2022-10-28T12:56:35;11.15;;;3.90;;
14778;SDS011;7481;53.750;10.570;2022-10-28T13:03:14;8.80;;;4.00;;
14778;SDS011;7481;53.750;10.570;2022-10-28T13:06:21;10.18;;;3.92;;
14778;SDS011;7481;53.750;10.570;2022-10-28T13:13:00;10.38;;;4.40;;
14778;SDS011;7481;53.750;10.570;2022-10-28T13:16:11;13.88;;;4.25;;
14778;SDS011;7481;53.750;10.570;2022-10-28T13:19:29;13.93;;;4.15;;
14778;SDS011;7481;53.750;10.570;2022-10-28T13:28:45;11.15;;;4.60;;
14778;SDS011;7481;53.750;10.570;2022-10-28T13:31:37;11.25;;;4.03;;
14778;SDS011;7481;53.750;10.570;2022-10-28T13:34:35;11.25;;;3.47;;
14778;SDS011;7481;53.750;10.570;2022-10-28T13:37:44;9.52;;;4.00;;
14778;SDS011;7481;53.750;10.570;2022-10-28T13:56:16;9.50;;;4.15;;
14778;SDS011;7481;53.750;10.570;2022-10-28T14:02:21;11.18;;;4.15;;
14778;SDS011;7481;53.750;10.570;2022-10-28T14:05:48;13.57;;;4.38;;
14778;SDS011;7481;53.750;10.570;2022-10-28T14:08:33;15.18;;;4.30;;
14778;SDS011;7481;53.750;10.570;2022-10-28T14:11:25;12.23;;;3.97;;
14778;SDS011;7481;53.750;10.570;2022-10-28T14:14:17;13.32;;;4.50;;
14778;SDS011;7481;53.750;10.570;2022-10-28T14:17:15;10.00;;;4.32;;
14778;SDS011;7481;53.750;10.570;2022-10-28T14:26:07;9.48;;;3.88;;
14778;SDS011;7481;53.750;10.570;2022-10-28T14:28:54;11.32;;;4.35;;
14778;SDS011;7481;53.750;10.570;2022-10-28T14:31:41;11.55;;;3.90;;
14778;SDS011;7481;53.750;10.570;2022-10-28T14:34:32;16.30;;;4.15;;
14778;SDS011;7481;53.750;10.570;2022-10-28T14:50:43;9.35;;;4.38;;
14778;SDS011;7481;53.750;10.570;2022-10-28T14:53:33;10.95;;;4.05;;
14778;SDS011;7481;53.750;10.570;2022-10-28T14:56:23;10.07;;;4.15;;
14778;SDS011;7481;53.750;10.570;2022-10-28T14:59:25;10.00;;;4.68;;
14778;SDS011;7481;53.750;10.570;2022-10-28T15:02:16;8.27;;;4.57;;
14778;SDS011;7481;53.750;10.570;2022-10-28T15:05:26;13.98;;;4.88;;
14778;SDS011;7481;53.750;10.570;2022-10-28T15:08:15;11.68;;;4.47;;
14778;SDS011;7481;53.750;10.570;2022-10-28T15:11:21;9.73;;;4.70;;
14778;SDS011;7481;53.750;10.570;2022-10-28T15:14:13;11.00;;;4.65;;
14778;SDS011;7481;53.750;10.570;2022-10-28T15:19:59;15.45;;;4.55;;
14778;SDS011;7481;53.750;10.570;2022-10-28T15:22:46;12.80;;;4.60;;
14778;SDS011;7481;53.750;10.570;2022-10-28T15:25:33;10.65;;;4.35;;
14778;SDS011;7481;53.750;10.570;2022-10-28T15:28:38;8.50;;;4.55;;
14778;SDS011;7481;53.750;10.570;2022-10-28T15:31:26;7.03;;;4.32;;
14778;SDS011;7481;53.750;10.570;2022-10-28T15:34:19;14.88;;;5.00;;
14778;SDS011;7481;53.750;10.570;2022-10-28T15:37:28;9.93;;;4.45;;
14778;SDS011;7481;53.750;10.570;2022-10-28T15:40:20;9.00;;;4.20;;
14778;SDS011;7481;53.750;10.570;2022-10-28T15:43:29;10.40;;;4.68;;
14778;SDS011;7481;53.750;10.570;2022-10-28T15:46:34;14.02;;;4.55;;
14778;SDS011;7481;53.750;10.570;2022-10-28T15:49:32;10.68;;;4.80;;
14778;SDS011;7481;53.750;10.570;2022-10-28T15:52:20;9.35;;;4.55;;
14778;SDS011;7481;53.750;10.570;2022-10-28T16:07:05;9.63;;;4.55;;
14778;SDS011;7481;53.750;10.570;2022-10-28T16:09:53;9.88;;;4.75;;
14778;SDS011;7481;53.750;10.570;2022-10-28T16:12:42;11.30;;;4.88;;
14778;SDS011;7481;53.750;10.570;2022-10-28T16:15:31;13.98;;;4.93;;
14778;SDS011;7481;53.750;10.570;2022-10-28T16:18:40;9.57;;;4.30;;
14778;SDS011;7481;53.750;10.570;2022-10-28T16:21:31;15.52;;;5.00;;
14778;SDS011;7481;53.750;10.570;2022-10-28T16:24:21;10.05;;;4.72;;
14778;SDS011;7481;53.750;10.570;2022-10-28T16:27:26;15.38;;;5.20;;
14778;SDS011;7481;53.750;10.570;2022-10-28T16:30:17;11.60;;;4.28;;
14778;SDS011;7481;53.750;10.570;2022-10-28T16:33:06;9.65;;;5.10;;
14778;SDS011;7481;53.750;10.570;2022-10-28T16:35:55;12.10;;;5.40;;
14778;SDS011;7481;53.750;10.570;2022-10-28T16:38:42;9.43;;;4.60;;
14778;SDS011;7481;53.750;10.570;2022-10-28T16:41:29;7.65;;;4.57;;
14778;SDS011;7481;53.750;10.570;2022-10-28T16:44:17;12.00;;;5.18;;
14778;SDS011;7481;53.750;10.570;2022-10-28T16:47:23;10.55;;;5.13;;
14778;SDS011;7481;53.750;10.570;2022-10-28T16:50:14;11.77;;;4.93;;
14778;SDS011;7481;53.750;10.570;2022-10-28T16:53:02;9.15;;;5.70;;
14778;SDS011;7481;53.750;10.570;2022-10-28T16:55:49;11.13;;;5.45;;
14778;SDS011;7481;53.750;10.570;2022-10-28T16:58:37;10.27;;;4.63;;
14778;SDS011;7481;53.750;10.570;2022-10-28T17:01:42;11.20;;;4.85;;
14778;SDS011;7481;53.750;10.570;2022-10-28T17:04:29;11.65;;;5.05;;
14778;SDS011;7481;53.750;10.570;2022-10-28T17:07:16;11.52;;;5.40;;
14778;SDS011;7481;53.750;10.570;2022-10-28T17:10:04;13.80;;;5.28;;
14778;SDS011;7481;53.750;10.570;2022-10-28T17:12:52;7.90;;;4.88;;
14778;SDS011;7481;53.750;10.570;2022-10-28T17:15:41;10.45;;;6.03;;
14778;SDS011;7481;53.750;10.570;2022-10-28T17:18:47;12.98;;;5.60;;
14778;SDS011;7481;53.750;10.570;2022-10-28T17:21:35;11.98;;;5.68;;
14778;SDS011;7481;53.750;10.570;2022-10-28T17:24:22;10.90;;;5.03;;
14778;SDS011;7481;53.750;10.570;2022-10-28T17:27:09;8.80;;;4.82;;
14778;SDS011;7481;53.750;10.570;2022-10-28T17:29:56;9.90;;;4.75;;
14778;SDS011;7481;53.750;10.570;2022-10-28T17:32:43;11.82;;;5.63;;
14778;SDS011;7481;53.750;10.570;2022-10-28T17:35:31;10.95;;;5.47;;
14778;SDS011;7481;53.750;10.570;2022-10-28T17:38:18;11.43;;;5.10;;
14778;SDS011;7481;53.750;10.570;2022-10-28T17:41:05;10.80;;;4.70;;
14778;SDS011;7481;53.750;10.570;2022-10-28T17:43:52;15.32;;;5.05;;
14778;SDS011;7481;53.750;10.570;2022-10-28T17:46:40;13.98;;;5.45;;
14778;SDS011;7481;53.750;10.570;2022-10-28T17:49:27;9.25;;;5.03;;
14778;SDS011;7481;53.750;10.570;2022-10-28T17:52:15;10.27;;;5.40;;
14778;SDS011;7481;53.750;10.570;2022-10-28T17:55:02;9.57;;;4.78;;
14778;SDS011;7481;53.750;10.570;2022-10-28T17:57:49;8.43;;;5.72;;
14778;SDS011;7481;53.750;10.570;2022-10-28T18:00:36;12.82;;;5.30;;
14778;SDS011;7481;53.750;10.570;2022-10-28T18:03:23;11.23;;;5.18;;
14778;SDS011;7481;53.750;10.570;2022-10-28T18:06:11;12.95;;;5.32;;
14778;SDS011;7481;53.750;10.570;2022-10-28T18:08:58;11.80;;;5.70;;
14778;SDS011;7481;53.750;10.570;2022-10-28T18:11:45;13.85;;;6.45;;
14778;SDS011;7481;53.750;10.570;2022-10-28T18:14:50;14.18;;;6.47;;
14778;SDS011;7481;53.750;10.570;2022-10-28T18:17:37;14.30;;;8.00;;
14778;SDS011;7481;53.750;10.570;2022-10-28T18:20:24;20.58;;;10.60;;
14778;SDS011;7481;53.750;10.570;2022-10-28T18:23:11;17.17;;;8.40;;
14778;SDS011;7481;53.750;10.570;2022-10-28T18:25:58;15.33;;;7.07;;
14778;SDS011;7481;53.750;10.570;2022-10-28T18:28:47;14.65;;;7.90;;
14778;SDS011;7481;53.750;10.570;2022-10-28T18:31:35;14.57;;;7.15;;
14778;SDS011;7481;53.750;10.570;2022-10-28T18:34:23;11.20;;;6.30;;
14778;SDS011;7481;53.750;10.570;2022-10-28T18:37:10;12.95;;;6.65;;
14778;SDS011;7481;53.750;10.570;2022-10-28T18:39:58;13.73;;;6.25;;
14778;SDS011;7481;53.750;10.570;2022-10-28T18:42:45;13.07;;;4.95;;
14778;SDS011;7481;53.750;10.570;2022-10-28T18:45:32;11.88;;;6.07;;
14778;SDS011;7481;53.750;10.570;2022-10-28T18:48:20;14.35;;;6.00;;
14778;SDS011;7481;53.750;10.570;2022-10-28T18:51:09;13.45;;;5.60;;
14778;SDS011;7481;53.750;10.570;2022-10-28T18:53:57;14.25;;;5.90;;
14778;SDS011;7481;53.750;10.570;2022-10-28T18:56:44;18.98;;;7.35;;
14778;SDS011;7481;53.750;10.570;2022-10-28T18:59:33;14.18;;;5.93;;
14778;SDS011;7481;53.750;10.570;2022-10-28T19:02:38;10.40;;;5.40;;
14778;SDS011;7481;53.750;10.570;2022-10-28T19:05:33;11.77;;;6.03;;
14778;SDS011;7481;53.750;10.570;2022-10-28T19:08:20;14.18;;;6.78;;
14778;SDS011;7481;53.750;10.570;2022-10-28T19:11:08;15.30;;;6.20;;
14778;SDS011;7481;53.750;10.570;2022-10-28T19:13:57;13.90;;;5.78;;
14778;SDS011;7481;53.750;10.570;2022-10-28T19:16:46;14.10;;;6.38;;
14778;SDS011;7481;53.750;10.570;2022-10-28T19:19:33;17.45;;;6.13;;
14778;SDS011;7481;53.750;10.570;2022-10-28T19:22:24;12.45;;;6.13;;
14778;SDS011;7481;53.750;10.570;2022-10-28T19:25:13;20.55;;;6.43;;
14778;SDS011;7481;53.750;10.570;2022-10-28T19:28:00;10.70;;;5.72;;
14778;SDS011;7481;53.750;10.570;2022-10-28T19:30:47;12.73;;;5.72;;
14778;SDS011;7481;53.750;10.570;2022-10-28T19:33:35;14.63;;;6.07;;
14778;SDS011;7481;53.750;10.570;2022-10-28T19:36:28;12.70;;;6.43;;
14778;SDS011;7481;53.750;10.570;2022-10-28T19:39:15;13.35;;;5.95;;
14778;SDS011;7481;53.750;10.570;2022-10-28T19:42:02;13.30;;;6.15;;
14778;SDS011;7481;53.750;10.570;2022-10-28T19:44:49;14.88;;;6.30;;
14778;SDS011;7481;53.750;10.570;2022-10-28T19:47:36;17.50;;;7.13;;
14778;SDS011;7481;53.750;10.570;2022-10-28T19:50:24;15.85;;;6.93;;
14778;SDS011;7481;53.750;10.570;2022-10-28T19:53:11;16.27;;;6.13;;
14778;SDS011;7481;53.750;10.570;2022-10-28T19:55:58;20.15;;;6.93;;
14778;SDS011;7481;53.750;10.570;2022-10-28T19:58:49;18.50;;;6.75;;
14778;SDS011;7481;53.750;10.570;2022-10-28T20:01:38;17.25;;;6.75;;
14778;SDS011;7481;53.750;10.570;2022-10-28T20:04:26;16.88;;;6.60;;